Time;durP1;ratioP1;P1;durP2;ratioP2;P2;SDS_P1;SDS_P2;PMS_P1;PMS_P2;Temp;Humidity;BMP_temperature;BMP_pressure;BME280_temperature;BME280_humidity;BME280_pressure;Samples;Min_cycle;Max_cycle;Signal;HPM_P1;HPM_P2
2022/08/20 00:00:28;;;;;;;37.98;7.65;;;;;;;22.41;62.77;100528.10;457977;115;923058;-74
2022/08/20 00:01:32;;;;;;;36.42;7.24;;;;;;;22.42;62.73;100529.77;441076;120;923405;-74
2022/08/20 00:02:41;;;;;;;29.38;7.08;;;;;;;22.41;62.88;100523.38;458260;115;923005;-74
2022/08/20 00:03:44;;;;;;;42.19;6.73;;;;;;;22.41;62.92;100517.82;457787;115;922592;-74
2022/08/20 00:04:49;;;;;;;37.63;7.41;;;;;;;22.41;62.99;100523.38;457193;115;922583;-74
2022/08/20 00:05:59;;;;;;;46.58;7.69;;;;;;;22.42;63.08;100521.43;436850;121;922604;-74
2022/08/20 00:07:09;;;;;;;38.99;7.57;;;;;;;22.53;63.08;100525.75;482318;110;946992;-73
2022/08/20 00:08:13;;;;;;;44.39;7.33;;;;;;;22.44;63.05;100521.94;473949;112;922571;-73
2022/08/20 00:09:16;;;;;;;42.27;6.74;;;;;;;22.44;63.07;100522.77;473976;112;922758;-73
2022/08/20 00:10:21;;;;;;;34.09;6.80;;;;;;;22.45;62.97;100520.83;473855;112;922565;-73
2022/08/20 00:11:26;;;;;;;34.65;6.79;;;;;;;22.46;62.79;100530.82;470610;112;922981;-73
2022/08/20 00:12:31;;;;;;;39.89;6.93;;;;;;;22.46;62.66;100522.48;465393;114;923078;-73
2022/08/20 00:13:41;;;;;;;34.88;7.31;;;;;;;22.47;62.53;100524.15;465558;114;922649;-74
2022/08/20 00:14:44;;;;;;;33.57;7.13;;;;;;;22.48;62.52;100522.20;465328;114;922671;-74
2022/08/20 00:15:48;;;;;;;36.89;6.84;;;;;;;22.46;62.58;100520.54;465515;114;922772;-74
2022/08/20 00:16:51;;;;;;;40.29;6.82;;;;;;;22.48;62.56;100524.98;465397;114;922476;-74
2022/08/20 00:17:55;;;;;;;46.17;8.14;;;;;;;22.47;62.53;100529.70;465571;114;922928;-74
2022/08/20 00:19:00;;;;;;;38.23;6.94;;;;;;;22.44;62.59;100531.11;465380;114;922581;-73
2022/08/20 00:20:08;;;;;;;37.78;7.83;;;;;;;22.43;62.54;100531.42;465370;114;922542;-74
2022/08/20 00:21:14;;;;;;;33.09;7.48;;;;;;;22.43;62.69;100536.98;465307;113;922907;-74
2022/08/20 00:22:19;;;;;;;36.77;7.32;;;;;;;22.41;62.79;100531.71;465093;114;923003;-73
2022/08/20 00:23:23;;;;;;;41.68;7.86;;;;;;;22.40;62.74;100530.05;465555;114;923017;-73
2022/08/20 00:24:27;;;;;;;31.38;6.84;;;;;;;22.39;62.66;100533.11;465466;114;922909;-74
2022/08/20 00:25:30;;;;;;;38.36;6.96;;;;;;;22.37;62.60;100543.72;465521;114;922768;-74
2022/08/20 00:26:34;;;;;;;42.71;7.35;;;;;;;22.36;62.57;100544.83;465335;113;923244;-72
2022/08/20 00:27:39;;;;;;;53.73;7.35;;;;;;;22.34;62.54;100549.84;465305;114;930290;-74
2022/08/20 00:28:42;;;;;;;42.75;7.04;;;;;;;22.33;62.61;100539.84;465487;114;930469;-74
2022/08/20 00:29:46;;;;;;;29.98;7.15;;;;;;;22.31;62.79;100542.94;463165;114;923069;-74
2022/08/20 00:30:49;;;;;;;43.25;6.87;;;;;;;22.31;63.04;100542.11;460544;114;922536;-74
2022/08/20 00:31:52;;;;;;;31.55;7.34;;;;;;;22.31;63.08;100544.88;465448;114;923141;-74
2022/08/20 00:32:58;;;;;;;28.16;5.79;;;;;;;22.30;63.10;100543.22;465510;114;922645;-74
2022/08/20 00:34:02;;;;;;;35.53;6.54;;;;;;;22.30;63.14;100546.00;467619;112;923125;-74
2022/08/20 00:35:05;;;;;;;41.27;7.55;;;;;;;22.31;63.27;100547.66;470504;112;922591;-73
2022/08/20 00:36:11;;;;;;;42.18;7.29;;;;;;;22.31;63.19;100548.49;470450;112;922576;-74
2022/08/20 00:37:14;;;;;;;35.49;6.13;;;;;;;22.31;63.25;100540.16;470349;112;922646;-74
2022/08/20 00:38:17;;;;;;;42.26;7.49;;;;;;;22.33;63.32;100548.17;470551;112;923042;-74
2022/08/20 00:39:21;;;;;;;34.05;6.31;;;;;;;22.32;63.28;100546.55;470440;112;922930;-74
2022/08/20 00:40:29;;;;;;;42.83;6.95;;;;;;;22.32;63.36;100543.77;469683;112;922592;-74
2022/08/20 00:41:33;;;;;;;35.52;7.74;;;;;;;22.32;63.30;100547.38;470276;112;922629;-74
2022/08/20 00:42:41;;;;;;;47.13;6.94;;;;;;;22.31;63.13;100542.94;470511;112;922494;-74
2022/08/20 00:43:49;;;;;;;45.17;7.34;;;;;;;22.33;63.06;100545.40;470517;112;922895;-74
2022/08/20 00:44:52;;;;;;;36.05;6.26;;;;;;;22.33;62.93;100540.67;470273;112;922974;-74
2022/08/20 00:45:57;;;;;;;51.14;7.74;;;;;;;22.33;62.80;100540.67;470524;112;922544;-74
2022/08/20 00:47:01;;;;;;;29.32;6.71;;;;;;;22.34;62.60;100531.22;470224;112;922870;-74
2022/08/20 00:48:04;;;;;;;43.74;7.75;;;;;;;22.35;62.40;100534.83;470436;112;923039;-74
2022/08/20 00:49:11;;;;;;;38.19;7.15;;;;;;;22.37;62.32;100535.37;470467;112;922671;-74
2022/08/20 00:50:18;;;;;;;36.95;7.73;;;;;;;22.36;62.37;100533.72;470221;112;923215;-74
2022/08/20 00:51:34;;;;;;;35.83;7.13;;;;;;;22.37;62.39;100535.37;470218;112;922847;-74
2022/08/20 00:52:39;;;;;;;38.74;6.81;;;;;;;22.38;62.30;100535.06;470244;112;922628;-74
2022/08/20 00:53:44;;;;;;;32.30;6.21;;;;;;;22.39;62.16;100533.95;470247;112;922647;-74
2022/08/20 00:54:56;;;;;;;32.54;6.62;;;;;;;22.40;62.09;100535.61;470373;112;922514;-74
2022/08/20 00:55:59;;;;;;;38.26;7.41;;;;;;;22.41;62.08;100537.27;470264;112;922966;-74
2022/08/20 00:57:21;;;;;;;42.64;7.36;;;;;;;22.43;62.02;100535.03;470453;112;922471;-74
2022/08/20 00:58:24;;;;;;;41.26;7.36;;;;;;;22.45;62.06;100532.77;470248;112;922616;-74
2022/08/20 00:59:31;;;;;;;42.73;6.71;;;;;;;22.49;62.06;100540.53;470405;112;922917;-74
2022/08/20 01:00:41;;;;;;;42.04;6.87;;;;;;;22.50;61.97;100533.83;470263;112;922594;-74
2022/08/20 01:01:45;;;;;;;37.27;6.80;;;;;;;22.52;61.93;100534.38;470537;112;922839;-74
2022/08/20 01:02:51;;;;;;;38.66;7.52;;;;;;;22.53;61.83;100539.64;470218;112;922542;-74
2022/08/20 01:03:55;;;;;;;44.24;6.51;;;;;;;22.54;61.82;100534.92;470387;112;922977;-74
2022/08/20 01:04:58;;;;;;;46.49;7.34;;;;;;;22.55;61.77;100531.82;469826;112;930516;-74
2022/08/20 01:06:02;;;;;;;48.71;8.54;;;;;;;22.58;61.75;100530.42;465479;114;923076;-74
2022/08/20 01:07:05;;;;;;;41.21;7.51;;;;;;;22.59;61.67;100532.08;465364;114;922741;-74
2022/08/20 01:08:09;;;;;;;36.63;7.56;;;;;;;22.58;61.74;100542.36;465366;114;930337;-74
2022/08/20 01:09:13;;;;;;;32.16;7.53;;;;;;;22.60;61.75;100542.08;465389;114;930450;-74
2022/08/20 01:10:24;;;;;;;42.47;6.82;;;;;;;22.61;61.75;100544.53;456192;116;930432;-74
2022/08/20 01:11:32;;;;;;;41.76;8.22;;;;;;;22.61;61.72;100555.66;465311;113;922853;-74
2022/08/20 01:12:41;;;;;;;46.39;7.13;;;;;;;22.62;61.73;100548.15;465247;114;923229;-74
2022/08/20 01:13:45;;;;;;;43.48;7.79;;;;;;;22.63;61.72;100549.81;465325;114;922590;-74
2022/08/20 01:14:48;;;;;;;39.63;6.94;;;;;;;22.63;61.75;100558.98;465322;114;922811;-74
2022/08/20 01:15:54;;;;;;;34.55;7.02;;;;;;;22.62;61.85;100559.27;457041;116;922700;-74
2022/08/20 01:17:01;;;;;;;32.98;7.13;;;;;;;22.61;61.89;100555.66;456802;116;922617;-74
2022/08/20 01:18:08;;;;;;;33.63;6.72;;;;;;;22.59;61.96;100555.14;456780;116;922890;-74
2022/08/20 01:19:14;;;;;;;36.26;8.12;;;;;;;22.58;61.99;100559.04;456708;116;922613;-74
2022/08/20 01:20:35;;;;;;;39.38;7.18;;;;;;;22.57;62.12;100559.33;456249;116;922524;-74
2022/08/20 01:21:38;;;;;;;55.47;7.93;;;;;;;22.58;62.26;100553.48;456667;116;923186;-74
2022/08/20 01:24:17;;;;;;;39.82;7.30;;;;;;;22.60;62.37;100555.97;456747;116;922966;-74
2022/08/20 01:25:23;;;;;;;37.91;6.84;;;;;;;22.60;62.26;100555.97;454845;116;922934;-75
2022/08/20 01:26:36;;;;;;;39.46;6.74;;;;;;;22.60;62.16;100561.53;456629;116;922888;-75
2022/08/20 01:27:40;;;;;;;31.48;7.45;;;;;;;22.60;62.16;100556.80;456461;116;922625;-75
2022/08/20 01:28:52;;;;;;;45.63;6.75;;;;;;;22.61;62.19;100561.21;456217;116;922649;-74
2022/08/20 01:29:56;;;;;;;33.44;7.07;;;;;;;22.62;62.10;100557.31;458340;115;923144;-73
2022/08/20 01:31:03;;;;;;;35.65;7.73;;;;;;;22.63;62.11;100558.98;462345;114;923082;-75
2022/08/20 01:32:05;;;;;;;40.62;7.99;;;;;;;22.64;62.02;100562.59;465002;114;930069;-75
2022/08/20 01:33:08;;;;;;;42.14;7.51;;;;;;;22.63;61.84;100561.76;465353;114;922541;-74
2022/08/20 01:34:15;;;;;;;37.88;7.17;;;;;;;22.64;61.75;100557.03;465309;114;923185;-75
2022/08/20 01:35:22;;;;;;;45.16;7.62;;;;;;;22.66;61.76;100560.35;465162;114;930710;-75
2022/08/20 01:36:32;;;;;;;43.88;7.23;;;;;;;22.66;61.70;100563.93;465237;114;922629;-74
2022/08/20 01:37:35;;;;;;;31.27;7.14;;;;;;;22.67;61.61;100565.59;465179;114;922545;-75
2022/08/20 01:38:39;;;;;;;34.30;6.85;;;;;;;22.68;61.62;100566.42;465397;114;923075;-75
2022/08/20 01:39:44;;;;;;;28.72;6.66;;;;;;;22.68;61.58;100570.03;462029;114;922591;-75
2022/08/20 01:41:23;;;;;;;39.09;6.83;;;;;;;22.68;61.54;100570.03;465380;114;922545;-75
2022/08/20 01:42:38;;;;;;;42.46;7.61;;;;;;;22.70;61.49;100566.97;464667;114;922529;-75
2022/08/20 01:43:45;;;;;;;40.84;8.18;;;;;;;22.68;61.53;100569.20;462086;114;922506;-75
2022/08/20 01:44:51;;;;;;;50.96;7.57;;;;;;;22.67;61.55;100564.77;465326;114;922614;-74
2022/08/20 01:45:54;;;;;;;25.01;7.60;;;;;;;22.65;61.48;100559.52;465431;114;923037;-74
2022/08/20 01:47:16;;;;;;;32.49;6.76;;;;;;;22.65;61.52;100564.25;465413;113;922553;-74
2022/08/20 01:48:21;;;;;;;35.56;6.83;;;;;;;22.64;61.61;100563.42;465232;114;922994;-74
2022/08/20 01:49:28;;;;;;;32.90;7.63;;;;;;;22.65;61.72;100564.25;461656;114;922923;-74
2022/08/20 01:50:35;;;;;;;36.37;7.62;;;;;;;22.65;61.70;100565.08;459968;115;923286;-74
2022/08/20 01:51:39;;;;;;;37.33;7.06;;;;;;;22.65;61.70;100556.74;460445;115;922639;-74
2022/08/20 01:53:03;;;;;;;39.19;5.91;;;;;;;22.66;61.62;100569.49;460538;115;923404;-74
2022/08/20 01:54:06;;;;;;;36.00;6.96;;;;;;;22.67;61.58;100570.32;460408;115;922527;-73
2022/08/20 01:55:10;;;;;;;49.34;7.38;;;;;;;22.68;61.51;100572.81;460579;115;922526;-74
2022/08/20 01:56:18;;;;;;;34.59;6.71;;;;;;;22.68;61.54;100564.48;460536;115;922505;-74
2022/08/20 01:57:25;;;;;;;31.97;6.06;;;;;;;22.69;61.66;100568.92;460483;115;922860;-74
2022/08/20 01:58:28;;;;;;;54.14;7.76;;;;;;;22.69;61.60;100563.36;460455;115;922596;-74
2022/08/20 01:59:31;;;;;;;34.44;7.39;;;;;;;22.69;61.71;100560.58;460637;115;922557;-74
2022/08/20 02:00:36;;;;;;;40.43;7.31;;;;;;;22.70;61.73;100567.80;460484;115;923083;-74
2022/08/20 02:01:39;;;;;;;28.89;7.94;;;;;;;22.70;61.75;100565.02;460662;115;922634;-74
2022/08/20 02:02:44;;;;;;;42.51;7.64;;;;;;;22.72;61.70;100559.17;459723;115;922524;-75
2022/08/20 02:03:48;;;;;;;24.90;7.26;;;;;;;22.72;61.67;100564.73;460642;115;922557;-75
2022/08/20 02:04:51;;;;;;;33.08;7.09;;;;;;;22.72;61.74;100564.73;460663;115;922996;-75
2022/08/20 02:05:55;;;;;;;44.06;7.22;;;;;;;22.72;61.80;100560.00;459752;115;923006;-76
2022/08/20 02:07:01;;;;;;;38.69;7.11;;;;;;;22.72;61.80;100561.95;459478;114;922505;-75
2022/08/20 02:08:05;;;;;;;35.65;7.57;;;;;;;22.73;61.83;100561.66;462295;114;922925;-75
2022/08/20 02:09:09;;;;;;;36.83;7.69;;;;;;;22.72;61.79;100553.61;465449;114;923009;-75
2022/08/20 02:10:16;;;;;;;32.52;7.55;;;;;;;22.71;61.77;100558.38;464825;114;930310;-75
2022/08/20 02:11:21;;;;;;;44.21;8.67;;;;;;;22.72;61.75;100559.17;465333;114;923021;-75
2022/08/20 02:12:24;;;;;;;50.53;7.99;;;;;;;22.71;61.67;100552.81;465431;114;923049;-75
2022/08/20 02:13:27;;;;;;;34.18;7.81;;;;;;;22.71;61.64;100557.52;465538;114;922911;-75
2022/08/20 02:14:31;;;;;;;37.71;6.42;;;;;;;22.71;61.65;100561.16;465505;114;922979;-75
2022/08/20 02:15:35;;;;;;;45.07;7.57;;;;;;;22.70;61.63;100556.69;459832;114;923015;-75
2022/08/20 02:16:42;;;;;;;33.48;7.22;;;;;;;22.72;61.68;100567.52;457105;115;923092;-75
2022/08/20 02:17:47;;;;;;;38.08;7.38;;;;;;;22.70;61.73;100566.97;456192;115;923046;-75
2022/08/20 02:18:57;;;;;;;36.95;8.11;;;;;;;22.69;61.69;100566.14;457445;116;922607;-75
2022/08/20 02:20:03;;;;;;;32.83;7.18;;;;;;;22.70;61.64;100569.75;457251;116;923350;-75
2022/08/20 02:21:07;;;;;;;36.76;7.73;;;;;;;22.69;61.61;100568.92;457241;115;923027;-75
2022/08/20 02:22:22;;;;;;;44.31;7.34;;;;;;;22.67;61.66;100565.59;457430;116;922856;-75
2022/08/20 02:23:26;;;;;;;41.58;7.43;;;;;;;22.66;61.72;100572.27;457256;116;922560;-76
2022/08/20 02:24:30;;;;;;;41.29;7.05;;;;;;;22.64;61.91;100576.48;457346;115;922673;-75
2022/08/20 02:25:35;;;;;;;33.78;7.04;;;;;;;22.62;62.02;100575.94;457360;116;930506;-75
2022/08/20 02:26:40;;;;;;;37.34;7.41;;;;;;;22.61;62.11;100580.67;457146;115;923402;-75
2022/08/20 02:27:45;;;;;;;33.01;7.12;;;;;;;22.59;62.28;100579.33;457398;116;922573;-75
2022/08/20 02:28:50;;;;;;;38.69;6.73;;;;;;;22.57;62.45;100578.78;457332;116;923482;-75
2022/08/20 02:29:53;;;;;;;34.09;7.96;;;;;;;22.57;62.44;100579.61;457270;116;922823;-75
2022/08/20 02:30:59;;;;;;;40.09;7.08;;;;;;;22.57;62.50;100587.11;460752;114;923029;-75
2022/08/20 02:32:02;;;;;;;41.51;7.99;;;;;;;22.58;62.50;100584.05;465408;114;922979;-75
2022/08/20 02:33:10;;;;;;;32.57;6.89;;;;;;;22.59;62.63;100584.88;462487;114;922524;-75
2022/08/20 02:34:14;;;;;;;28.98;6.86;;;;;;;22.59;62.52;100588.49;462957;114;922608;-75
2022/08/20 02:35:19;;;;;;;25.47;7.31;;;;;;;22.60;62.58;100589.32;461535;115;923662;-75
2022/08/20 02:36:23;;;;;;;36.91;7.49;;;;;;;22.60;62.52;100584.59;461684;115;922706;-75
2022/08/20 02:37:27;;;;;;;37.44;7.08;;;;;;;22.62;62.48;100584.28;461700;115;922841;-75
2022/08/20 02:38:33;;;;;;;30.19;7.19;;;;;;;22.63;62.48;100583.99;461605;115;930837;-75
2022/08/20 02:39:35;;;;;;;40.53;7.64;;;;;;;22.64;62.53;100587.60;461495;115;931026;-76
2022/08/20 02:40:39;;;;;;;26.86;7.01;;;;;;;22.63;62.46;100583.99;461723;115;922819;-75
2022/08/20 02:41:43;;;;;;;35.88;7.33;;;;;;;22.65;62.49;100586.48;461617;115;930509;-76
2022/08/20 02:42:46;;;;;;;29.81;6.34;;;;;;;22.65;62.41;100578.98;461716;115;922501;-75
2022/08/20 02:43:50;;;;;;;31.42;7.36;;;;;;;22.66;62.38;100583.39;461615;115;922614;-75
2022/08/20 02:44:53;;;;;;;48.02;6.96;;;;;;;22.67;62.31;100582.27;461700;115;930453;-75
2022/08/20 02:45:58;;;;;;;29.29;6.87;;;;;;;22.69;62.25;100581.98;461670;115;922619;-75
2022/08/20 02:47:01;;;;;;;40.55;7.23;;;;;;;22.69;62.16;100581.98;461632;115;930533;-75
2022/08/20 02:48:04;;;;;;;42.46;7.65;;;;;;;22.69;62.10;100576.42;461779;115;922795;-75
2022/08/20 02:49:08;;;;;;;35.24;6.89;;;;;;;22.70;62.05;100578.09;461633;115;922576;-76
2022/08/20 02:50:14;;;;;;;38.36;6.93;;;;;;;22.69;62.03;100581.98;461620;115;922559;-75
2022/08/20 02:51:17;;;;;;;33.86;7.36;;;;;;;22.68;62.12;100586.72;461521;115;923611;-75
2022/08/20 02:52:22;;;;;;;42.01;7.04;;;;;;;22.67;62.20;100585.05;458997;115;922654;-75
2022/08/20 02:53:27;;;;;;;36.59;7.41;;;;;;;22.67;62.26;100587.00;461789;115;922598;-75
2022/08/20 02:54:30;;;;;;;38.14;6.45;;;;;;;22.67;62.23;100585.05;461628;115;922591;-75
2022/08/20 02:55:33;;;;;;;49.26;6.94;;;;;;;22.66;62.25;100585.37;461761;115;923039;-75
2022/08/20 02:56:38;;;;;;;40.34;7.26;;;;;;;22.66;62.17;100586.16;461586;115;922538;-75
2022/08/20 02:57:42;;;;;;;32.39;6.69;;;;;;;22.66;62.09;100577.83;461626;115;930343;-75
2022/08/20 02:58:45;;;;;;;39.98;7.07;;;;;;;22.67;62.08;100576.71;461515;115;930979;-75
2022/08/20 02:59:51;;;;;;;34.93;6.84;;;;;;;22.68;62.05;100583.94;461792;115;923204;-75
2022/08/20 03:00:55;;;;;;;29.02;6.62;;;;;;;22.69;62.00;100581.98;461542;115;922552;-75
2022/08/20 03:01:58;;;;;;;41.39;7.33;;;;;;;22.70;61.93;100581.70;461645;115;922625;-75
2022/08/20 03:03:03;;;;;;;32.33;6.61;;;;;;;22.70;61.83;100578.92;461562;115;923133;-75
2022/08/20 03:04:06;;;;;;;44.47;6.67;;;;;;;22.70;61.80;100578.09;460192;114;923089;-75
2022/08/20 03:05:09;;;;;;;33.81;6.48;;;;;;;22.70;61.83;100592.81;450889;117;922469;-75
2022/08/20 03:06:15;;;;;;;32.38;6.45;;;;;;;22.71;61.88;100591.73;445017;119;923151;-75
2022/08/20 03:07:18;;;;;;;31.77;6.83;;;;;;;22.72;61.78;100593.36;445282;119;923152;-75
2022/08/20 03:08:22;;;;;;;38.06;6.92;;;;;;;22.73;61.64;100594.19;444784;118;922603;-75
2022/08/20 03:09:25;;;;;;;34.29;7.62;;;;;;;22.72;61.56;100595.31;444688;119;923000;-74
2022/08/20 03:10:33;;;;;;;37.88;7.24;;;;;;;22.72;61.58;100603.65;444686;119;923095;-75
2022/08/20 03:11:38;;;;;;;32.58;6.47;;;;;;;22.73;61.71;100602.53;444546;119;922718;-76
2022/08/20 03:12:41;;;;;;;31.91;7.58;;;;;;;22.73;61.76;100591.41;444500;119;922494;-75
2022/08/20 03:13:44;;;;;;;34.33;5.78;;;;;;;22.74;61.82;100602.25;444711;119;922797;-75
2022/08/20 03:14:47;;;;;;;43.90;7.59;;;;;;;22.75;62.02;100598.34;444777;119;922936;-75
2022/08/20 03:15:54;;;;;;;33.04;7.06;;;;;;;22.76;61.93;100594.45;448282;118;922532;-75
2022/08/20 03:17:00;;;;;;;42.74;7.04;;;;;;;22.79;61.86;100602.19;464967;114;922558;-75
2022/08/20 03:18:03;;;;;;;47.15;7.91;;;;;;;22.79;61.83;100601.36;465299;114;922906;-75
2022/08/20 03:19:07;;;;;;;34.71;6.91;;;;;;;22.81;61.71;100597.17;465442;114;923199;-75
2022/08/20 03:20:12;;;;;;;46.27;7.24;;;;;;;22.83;61.79;100594.07;465257;114;922599;-75
2022/08/20 03:21:16;;;;;;;36.82;7.47;;;;;;;22.85;61.79;100602.95;465254;114;922940;-75
2022/08/20 03:22:19;;;;;;;45.82;6.91;;;;;;;22.87;61.81;100606.28;465447;114;923056;-75
2022/08/20 03:23:22;;;;;;;38.70;7.19;;;;;;;22.90;61.78;100602.89;465417;114;923633;-75
2022/08/20 03:24:25;;;;;;;29.54;6.73;;;;;;;22.93;61.72;100605.10;465475;114;922846;-75
2022/08/20 03:25:29;;;;;;;32.94;6.80;;;;;;;22.94;61.75;100611.46;465461;114;922651;-75
2022/08/20 03:26:33;;;;;;;29.39;6.24;;;;;;;22.96;61.62;100598.10;465239;113;922538;-75
2022/08/20 03:27:36;;;;;;;40.79;7.57;;;;;;;22.98;61.56;100601.42;465394;114;922633;-75
2022/08/20 03:28:40;;;;;;;30.91;7.05;;;;;;;23.01;61.43;100600.81;465380;114;925486;-75
2022/08/20 03:29:43;;;;;;;32.23;7.06;;;;;;;23.02;61.43;100602.48;463154;114;922418;-75
2022/08/20 03:30:46;;;;;;;41.40;6.76;;;;;;;23.04;61.34;100597.46;460100;114;922679;-75
2022/08/20 03:31:49;;;;;;;26.93;7.29;;;;;;;23.06;61.26;100606.31;465383;114;923156;-75
2022/08/20 03:32:53;;;;;;;31.93;7.27;;;;;;;23.07;61.24;100603.25;465389;114;922932;-75
2022/08/20 03:33:56;;;;;;;31.59;6.22;;;;;;;23.09;61.17;100605.73;462387;114;922835;-75
2022/08/20 03:34:59;;;;;;;43.04;6.74;;;;;;;23.10;61.13;100607.40;457283;116;930503;-75
2022/08/20 03:36:04;;;;;;;41.19;7.56;;;;;;;23.10;61.00;100604.62;457402;116;922602;-75
2022/08/20 03:37:10;;;;;;;25.70;5.38;;;;;;;23.11;60.85;100609.03;457137;116;922551;-75
2022/08/20 03:38:16;;;;;;;37.78;7.43;;;;;;;23.11;60.72;100609.86;457099;116;922570;-75
2022/08/20 03:39:21;;;;;;;47.70;8.33;;;;;;;23.12;60.66;100605.12;456757;116;922540;-75
2022/08/20 03:40:32;;;;;;;38.93;7.08;;;;;;;23.12;60.58;100613.48;456694;116;922574;-75
2022/08/20 03:41:37;;;;;;;47.92;8.39;;;;;;;23.12;60.49;100619.03;456880;116;922577;-75
2022/08/20 03:42:40;;;;;;;34.22;7.40;;;;;;;23.12;60.42;100616.25;457181;115;930411;-75
2022/08/20 03:43:44;;;;;;;44.29;7.36;;;;;;;23.12;60.44;100611.52;457347;116;923024;-75
2022/08/20 03:44:48;;;;;;;33.71;7.03;;;;;;;23.12;60.26;100619.03;457206;116;922781;-75
2022/08/20 03:45:53;;;;;;;33.08;7.21;;;;;;;23.10;60.24;100621.31;455559;116;930535;-75
2022/08/20 03:46:56;;;;;;;33.74;7.45;;;;;;;23.10;60.17;100610.98;457278;116;922600;-75
2022/08/20 03:48:00;;;;;;;28.69;6.75;;;;;;;23.08;60.13;100621.59;457170;115;922852;-75
2022/08/20 03:49:03;;;;;;;32.28;7.64;;;;;;;23.08;60.12;100615.20;457152;115;930470;-75
2022/08/20 03:50:08;;;;;;;27.21;6.78;;;;;;;23.07;60.12;100614.38;457265;116;930565;-75
2022/08/20 03:51:13;;;;;;;33.47;6.77;;;;;;;23.07;60.19;100607.98;456515;116;922876;-75
2022/08/20 03:52:16;;;;;;;33.67;7.75;;;;;;;23.06;60.22;100609.09;457307;115;922523;-75
2022/08/20 03:53:20;;;;;;;36.29;7.62;;;;;;;23.04;60.15;100606.63;457285;115;923203;-75
2022/08/20 03:54:23;;;;;;;40.75;8.21;;;;;;;23.05;60.17;100604.66;457344;116;923181;-75
2022/08/20 03:55:30;;;;;;;32.92;8.21;;;;;;;23.03;60.13;100606.92;456619;116;922625;-75
2022/08/20 03:56:33;;;;;;;27.77;6.26;;;;;;;23.03;60.07;100604.14;457118;116;922770;-75
2022/08/20 03:57:45;;;;;;;35.63;7.05;;;;;;;23.02;59.99;100602.48;457348;116;923137;-75
2022/08/20 03:58:48;;;;;;;36.98;8.07;;;;;;;23.02;59.93;100603.31;457142;116;923070;-75
2022/08/20 03:59:51;;;;;;;42.33;7.74;;;;;;;23.01;59.95;100603.59;457316;116;923038;-75
2022/08/20 04:00:56;;;;;;;37.21;7.73;;;;;;;23.00;60.03;100599.16;466878;113;922922;-75
2022/08/20 04:02:00;;;;;;;51.37;7.55;;;;;;;22.99;60.10;100615.02;469804;113;922469;-75
2022/08/20 04:03:05;;;;;;;35.01;6.96;;;;;;;22.97;60.12;100614.50;469665;113;930609;-75
2022/08/20 04:04:09;;;;;;;45.33;7.52;;;;;;;22.96;60.28;100612.00;469642;113;923466;-75
2022/08/20 04:05:14;;;;;;;39.64;7.86;;;;;;;22.94;60.42;100617.85;466904;112;922579;-75
2022/08/20 04:06:17;;;;;;;39.38;7.41;;;;;;;22.93;60.48;100620.95;462064;114;922554;-75
2022/08/20 04:07:26;;;;;;;37.54;7.13;;;;;;;22.92;60.60;100628.47;462096;114;923134;-75
2022/08/20 04:08:29;;;;;;;30.81;6.69;;;;;;;22.92;60.58;100630.41;461872;115;922641;-75
2022/08/20 04:09:32;;;;;;;38.80;7.38;;;;;;;22.90;60.55;100632.65;462141;115;922635;-75
2022/08/20 04:10:37;;;;;;;42.59;6.81;;;;;;;22.89;60.58;100631.82;462027;115;922517;-76
2022/08/20 04:11:41;;;;;;;43.71;7.59;;;;;;;22.88;60.59;100622.64;462022;115;922557;-75
2022/08/20 04:12:44;;;;;;;41.28;7.70;;;;;;;22.88;60.48;100628.20;462061;115;922561;-75
2022/08/20 04:13:49;;;;;;;41.75;6.89;;;;;;;22.90;60.48;100629.87;460913;115;922539;-75
2022/08/20 04:14:52;;;;;;;31.79;5.92;;;;;;;22.90;60.56;100621.53;462107;115;922458;-75
2022/08/20 04:15:55;;;;;;;40.09;7.25;;;;;;;22.89;60.65;100623.48;461678;115;922976;-75
2022/08/20 04:17:02;;;;;;;29.08;7.14;;;;;;;22.90;60.73;100625.14;461545;115;922552;-75
2022/08/20 04:18:07;;;;;;;43.76;8.09;;;;;;;22.90;60.81;100616.80;461455;115;922635;-75
2022/08/20 04:19:10;;;;;;;35.30;6.48;;;;;;;22.91;60.84;100618.45;452310;117;923087;-75
2022/08/20 04:20:17;;;;;;;40.67;6.99;;;;;;;22.92;60.89;100608.17;452497;117;922572;-75
2022/08/20 04:21:20;;;;;;;48.83;8.57;;;;;;;22.93;60.73;100609.83;452302;117;923014;-75
2022/08/20 04:22:24;;;;;;;33.80;7.33;;;;;;;22.93;60.65;100609.83;452481;117;922558;-75
2022/08/20 04:23:28;;;;;;;44.26;7.50;;;;;;;22.94;60.62;100609.52;452383;117;923020;-76
2022/08/20 04:24:31;;;;;;;35.76;8.52;;;;;;;22.95;60.60;100613.13;452302;117;930346;-76
2022/08/20 04:25:39;;;;;;;43.45;7.91;;;;;;;22.96;60.50;100615.62;452287;117;930413;-75
2022/08/20 04:26:45;;;;;;;39.11;7.01;;;;;;;22.98;60.49;100613.37;452027;117;922473;-75
2022/08/20 04:27:49;;;;;;;41.77;7.42;;;;;;;23.00;60.45;100615.84;452434;117;922603;-75
2022/08/20 04:28:54;;;;;;;40.30;6.78;;;;;;;23.01;60.30;100609.99;452223;117;922561;-76
2022/08/20 04:29:59;;;;;;;49.43;8.05;;;;;;;23.02;60.26;100614.44;449777;117;922767;-75
2022/08/20 04:31:02;;;;;;;39.55;7.28;;;;;;;23.04;60.32;100611.37;460252;114;930403;-75
2022/08/20 04:32:06;;;;;;;29.91;6.44;;;;;;;23.05;60.22;100610.22;465369;114;922792;-75
2022/08/20 04:33:09;;;;;;;34.73;7.22;;;;;;;23.08;60.11;100610.47;465293;114;922686;-76
2022/08/20 04:34:12;;;;;;;43.39;7.42;;;;;;;23.09;60.08;100614.08;466031;113;930516;-76
2022/08/20 04:35:18;;;;;;;47.17;7.44;;;;;;;23.10;59.92;100615.75;466490;113;922930;-76
2022/08/20 04:36:23;;;;;;;43.96;7.88;;;;;;;23.11;59.90;100612.64;466203;113;922650;-76
2022/08/20 04:37:26;;;;;;;37.62;7.48;;;;;;;23.14;59.88;100614.02;466370;113;922856;-75
2022/08/20 04:38:30;;;;;;;39.88;7.76;;;;;;;23.16;59.86;100620.09;466433;113;922496;-75
2022/08/20 04:39:35;;;;;;;42.27;7.75;;;;;;;23.18;59.83;100610.34;463294;113;923106;-75
2022/08/20 04:40:57;;;;;;;33.70;7.32;;;;;;;23.21;59.79;100611.71;466401;113;922521;-76
2022/08/20 04:42:00;;;;;;;42.39;7.83;;;;;;;23.24;59.65;100616.66;466258;113;922618;-76
2022/08/20 04:43:04;;;;;;;35.27;7.21;;;;;;;23.26;59.57;100611.64;466407;113;922900;-76
2022/08/20 04:44:08;;;;;;;39.41;7.24;;;;;;;23.28;59.54;100617.72;466325;113;922570;-75
2022/08/20 04:45:11;;;;;;;43.96;7.50;;;;;;;23.30;59.49;100623.82;466307;113;930255;-75
2022/08/20 04:46:15;;;;;;;37.78;7.84;;;;;;;23.32;59.58;100624.36;466367;113;922904;-75
2022/08/20 04:47:20;;;;;;;40.56;8.88;;;;;;;23.35;59.45;100618.19;466394;113;922592;-75
2022/08/20 04:48:27;;;;;;;40.29;7.35;;;;;;;23.38;59.46;100625.09;463181;113;930795;-75
2022/08/20 04:49:31;;;;;;;37.59;7.38;;;;;;;23.40;59.44;100623.68;466234;113;922528;-75
2022/08/20 04:50:37;;;;;;;44.24;8.39;;;;;;;23.42;59.36;100618.66;466461;113;923067;-75
2022/08/20 04:51:40;;;;;;;49.69;7.78;;;;;;;23.44;59.25;100621.11;466212;113;922592;-75
2022/08/20 04:52:43;;;;;;;36.41;7.69;;;;;;;23.44;59.20;100610.81;466453;113;923006;-75
2022/08/20 04:53:46;;;;;;;54.86;8.78;;;;;;;23.46;59.16;100611.39;466457;113;923165;-75
2022/08/20 04:54:51;;;;;;;34.49;7.30;;;;;;;23.48;59.26;100608.31;465596;113;922550;-75
2022/08/20 04:55:58;;;;;;;50.76;8.47;;;;;;;23.50;59.21;100598.52;466439;113;923087;-75
2022/08/20 04:57:01;;;;;;;46.94;7.59;;;;;;;23.53;59.20;100603.50;458975;113;930408;-75
2022/08/20 04:58:06;;;;;;;37.35;6.55;;;;;;;23.56;59.18;100605.67;456859;114;922683;-76